Terminal Aerodrome Forecast
Issued by NWS

Home | Current Version | Previous Version | Graphics & Text | Print | Product List | Glossary On
Versions: 1 2 3 4 5 6 7 8 9 10 11 12 13 14 15 16
000
FTUS45 KGGW 251100
TAFSDY
TAF
KSDY 251140Z 2512/2612 12011KT P6SM BKN100
     FM251800 14012KT P6SM VCSH OVC080
     FM252100 VRB04KT 6SM -SHRA BKN040 OVC080
     FM260000 29013KT 6SM -SHRA OVC030
      AMD LTD TO CLD VIS AND WIND=

USA.gov is the U.S. government's official web portal to all federal, state and local government web resources and services.